Baton Rouge Metropolitan Airport

Date: 2024-06-11 04:53:00Z

Type: METAR

Weather: Thunderstorms

Winds: 300° at 5 kts

Visibility: 10+

Ceiling (AGL FT): Clouds FEW at 2500, BROKEN at 10000, BROKEN at 10000, BROKEN at 18000

RAW METAR: KBTR 110453Z 30005KT 10SM TS FEW025 BKN100 27/22 A2986 RMK AO2 TSE33B34 SLP110 T02670222

project-image